createdAt,value
2023-01-01T00:01:45.890Z,3.50
2023-01-01T00:04:15.469Z,4.07
2023-01-01T00:06:43.933Z,3.10
2023-01-01T00:09:29.455Z,3.63
2023-01-01T00:11:56.499Z,3.30
2023-01-01T00:14:23.411Z,4.53
2023-01-01T00:16:50.636Z,3.73
2023-01-01T00:19:17.839Z,4.07
2023-01-01T00:21:46.466Z,3.10
2023-01-01T00:24:13.343Z,2.83
2023-01-01T00:26:40.145Z,3.43
2023-01-01T00:29:07.132Z,3.53
2023-01-01T00:31:34.056Z,4.20
2023-01-01T00:34:01.075Z,4.13
2023-01-01T00:36:28.620Z,3.87
2023-01-01T00:38:56.004Z,2.80
2023-01-01T00:41:23.379Z,3.53
2023-01-01T00:43:50.258Z,3.77
2023-01-01T00:46:17.100Z,3.90
2023-01-01T00:48:43.975Z,3.53
2023-01-01T00:51:11.113Z,4.13
2023-01-01T00:53:38.366Z,4.40
2023-01-01T00:56:05.530Z,3.27
2023-01-01T00:58:32.563Z,4.20
2023-01-01T01:00:59.740Z,4.50
2023-01-01T01:03:29.562Z,3.80
2023-01-01T01:05:58.745Z,4.33
2023-01-01T01:08:31.018Z,4.37
2023-01-01T01:11:10.329Z,5.43
2023-01-01T01:13:37.926Z,5.30
2023-01-01T01:16:17.018Z,4.80
2023-01-01T01:18:44.744Z,5.67
2023-01-01T01:21:15.303Z,4.83
2023-01-01T01:23:42.415Z,4.87
2023-01-01T01:26:17.660Z,5.33
2023-01-01T01:28:49.332Z,5.50
2023-01-01T01:31:18.068Z,5.00
2023-01-01T01:33:45.610Z,4.57
2023-01-01T01:36:13.142Z,5.83
2023-01-01T01:38:40.432Z,5.27
2023-01-01T01:41:08.563Z,4.77
2023-01-01T01:43:35.469Z,4.87
2023-01-01T01:46:10.617Z,4.83
2023-01-01T01:48:44.786Z,4.57
2023-01-01T01:51:14.043Z,4.83
2023-01-01T01:53:45.668Z,4.53
2023-01-01T01:56:21.798Z,5.17
2023-01-01T01:58:48.718Z,5.07
2023-01-01T02:01:16.088Z,4.40
2023-01-01T02:06:18.651Z,4.57
2023-01-01T02:08:45.995Z,4.37
2023-01-01T02:11:17.419Z,4.63
2023-01-01T02:13:47.139Z,5.07
2023-01-01T12:45:53.279Z,3.07
2023-01-01T12:48:49.546Z,4.00
2023-01-01T12:51:35.895Z,4.40
2023-01-01T12:54:25.894Z,4.90
2023-01-01T12:57:18.745Z,4.77
2023-01-01T12:59:49.909Z,3.33
2023-01-01T13:02:23.542Z,3.40
2023-01-01T13:04:56.481Z,4.27
2023-01-01T13:07:38.617Z,3.90
2023-01-01T13:10:43.869Z,3.67
2023-01-01T13:13:13.121Z,4.30
2023-01-01T13:15:44.230Z,4.40
2023-01-01T13:18:14.208Z,4.23
2023-01-01T13:21:02.368Z,4.30
2023-01-01T13:23:29.286Z,3.73
2023-01-01T13:26:35.253Z,3.57
2023-01-01T13:29:02.042Z,3.93
2023-01-01T13:31:41.334Z,4.73
2023-01-01T13:34:35.141Z,5.00
2023-01-01T13:37:11.098Z,3.77
2023-01-01T13:39:53.930Z,4.50
2023-01-01T13:42:39.681Z,3.80
2023-01-01T13:46:09.959Z,3.70
2023-01-01T13:48:19.768Z,3.10
2023-01-01T13:51:10.422Z,3.70
2023-01-01T13:53:46.177Z,3.70
2023-01-01T13:56:34.067Z,4.43
2023-01-01T13:59:25.028Z,2.97
2023-01-01T14:01:57.929Z,3.70
2023-01-01T14:04:38.488Z,4.10
2023-01-01T14:07:53.620Z,3.70
2023-01-01T14:10:33.225Z,3.20
2023-01-01T14:13:05.819Z,3.87
2023-01-01T14:15:35.897Z,3.53
2023-01-01T14:18:06.760Z,2.70
2023-01-01T14:20:40.942Z,3.10
2023-01-01T14:23:13.349Z,3.10
2023-01-01T14:25:43.437Z,4.20
2023-01-01T14:28:21.240Z,3.97
2023-01-01T14:30:48.533Z,3.87
2023-01-01T14:33:24.521Z,3.67
2023-01-01T14:35:59.510Z,3.40
2023-01-01T14:38:30.725Z,3.63
2023-01-01T14:41:06.901Z,3.67
2023-01-01T14:43:37.056Z,3.03
2023-01-01T14:46:11.200Z,3.07
2023-01-01T14:48:44.632Z,3.30
2023-01-01T14:51:16.763Z,3.70
2023-01-01T14:53:45.514Z,4.00
2023-01-01T14:56:26.647Z,3.67
2023-01-01T14:58:56.075Z,3.23
2023-01-01T15:01:26.440Z,3.77
2023-01-01T15:04:02.511Z,3.80
2023-01-01T15:06:30.357Z,4.37
2023-01-01T15:08:57.954Z,3.70
2023-01-01T15:11:29.021Z,3.87
2023-01-01T15:14:03.174Z,3.40
2023-01-01T15:16:33.404Z,3.53
2023-01-01T15:19:18.175Z,3.63
2023-01-01T15:21:45.078Z,3.47
2023-01-01T15:24:40.261Z,10.63
2023-01-01T15:27:17.695Z,8.13
2023-01-01T15:29:47.518Z,6.03
2023-01-01T15:32:16.562Z,6.07
2023-01-01T15:34:53.760Z,5.60
2023-01-01T15:37:30.068Z,4.40
2023-01-01T15:40:00.608Z,4.93
2023-01-01T15:42:33.547Z,4.77
2023-01-01T15:45:23.622Z,4.30
2023-01-01T15:47:56.216Z,5.13
2023-01-01T15:50:26.032Z,5.03
2023-01-01T15:53:01.353Z,4.27
2023-01-01T15:55:31.499Z,4.47
2023-01-01T15:57:58.871Z,8.80
2023-01-01T16:00:29.728Z,14.60
2023-01-01T16:03:12.811Z,8.33
2023-01-01T16:05:48.018Z,14.43
2023-01-01T16:08:14.892Z,11.27
2023-01-01T16:10:42.705Z,15.47
2023-01-01T16:13:09.729Z,5.87
2023-01-01T16:15:36.950Z,4.83
2023-01-01T16:18:03.887Z,3.97
2023-01-01T16:20:31.169Z,5.20
2023-01-01T16:22:58.034Z,7.37
2023-01-01T16:25:24.853Z,3.80
2023-01-01T16:27:51.714Z,4.87
2023-01-01T16:30:18.657Z,4.20
2023-01-01T16:32:45.969Z,4.33
2023-01-01T16:35:14.074Z,3.30
2023-01-01T16:37:40.932Z,4.13
2023-01-01T16:40:09.159Z,3.63
2023-01-01T16:42:36.049Z,3.97
2023-01-01T16:45:02.972Z,4.57
2023-01-01T16:47:29.847Z,3.43
2023-01-01T16:49:56.727Z,3.53
2023-01-01T16:52:23.709Z,4.57
2023-01-01T16:54:50.584Z,3.70
2023-01-01T16:57:17.379Z,4.40
2023-01-01T16:59:44.203Z,3.50
2023-01-01T17:02:11.475Z,3.67
2023-01-01T17:04:38.623Z,4.90
2023-01-01T17:07:05.447Z,18.07
2023-01-01T17:09:32.345Z,21.17
2023-01-01T17:11:59.254Z,13.40
2023-01-01T17:14:26.164Z,10.50
2023-01-01T17:16:55.363Z,13.57
2023-01-01T17:19:22.500Z,9.43
2023-01-01T17:21:49.392Z,5.47
2023-01-01T17:24:17.392Z,4.87
2023-01-01T17:26:44.740Z,6.10
2023-01-01T17:29:12.413Z,4.70
2023-01-01T17:31:39.391Z,4.17
2023-01-01T17:34:06.407Z,3.37
2023-01-01T17:36:33.333Z,3.97
2023-01-01T17:39:00.221Z,3.63
2023-01-01T17:41:27.158Z,3.63
2023-01-01T17:43:54.038Z,3.80
2023-01-01T17:46:28.468Z,3.37
2023-01-01T17:48:55.696Z,3.30
2023-01-01T17:51:22.777Z,4.00
2023-01-01T17:53:49.979Z,3.47
2023-01-01T17:56:18.944Z,3.33
2023-01-01T17:58:47.165Z,3.77
2023-01-01T18:01:22.605Z,4.13
2023-01-01T18:03:51.899Z,3.77
2023-01-01T18:06:18.813Z,3.37
2023-01-01T18:08:45.852Z,3.30
2023-01-01T18:11:12.751Z,3.27
2023-01-01T18:13:39.808Z,3.23
2023-01-01T18:16:08.460Z,3.40
2023-01-01T18:18:41.723Z,3.77
2023-01-01T18:21:14.454Z,3.47
2023-01-01T18:23:42.045Z,3.60
2023-01-01T18:26:10.581Z,3.30
2023-01-01T18:28:38.291Z,3.20
2023-01-01T18:31:16.901Z,3.20
2023-01-01T18:33:46.847Z,3.90
2023-01-01T18:36:16.097Z,3.67
2023-01-01T18:38:48.722Z,4.33
2023-01-01T18:41:27.472Z,4.37
2023-01-01T18:43:55.334Z,3.50
2023-01-01T18:46:25.146Z,5.87
2023-01-01T18:48:57.120Z,5.93
2023-01-01T18:51:26.592Z,5.33
2023-01-01T18:53:58.516Z,6.00
2023-01-01T18:56:25.690Z,5.03
2023-01-01T18:58:56.534Z,8.37
2023-01-01T19:01:24.599Z,12.97
2023-01-01T19:03:55.328Z,8.93
2023-01-01T19:06:29.023Z,13.97
2023-01-01T19:09:32.741Z,25.73
2023-01-01T19:12:01.197Z,8.83
2023-01-01T19:14:32.400Z,19.43
2023-01-01T19:17:02.474Z,7.03
2023-01-01T19:19:34.781Z,14.43
2023-01-01T19:22:33.757Z,10.20
2023-01-01T19:25:03.153Z,10.70
2023-01-01T19:27:34.130Z,5.27
2023-01-01T19:30:01.837Z,8.37
2023-01-01T19:32:28.708Z,8.50
2023-01-01T19:34:56.357Z,10.87
2023-01-01T19:37:23.183Z,7.90
2023-01-01T19:39:51.597Z,12.70
2023-01-01T19:42:19.320Z,11.77
2023-01-01T19:44:46.136Z,7.43
2023-01-01T19:47:13.263Z,11.77
2023-01-01T19:49:40.218Z,7.30
2023-01-01T19:52:08.421Z,17.73
2023-01-01T19:54:35.295Z,15.00
2023-01-01T19:57:02.170Z,6.60
2023-01-01T19:59:32.937Z,6.33
2023-01-01T20:02:34.963Z,6.20
2023-01-01T20:04:52.568Z,7.77
2023-01-01T20:07:19.604Z,12.10
2023-01-01T20:09:46.547Z,8.37
2023-01-01T20:12:13.494Z,6.40
2023-01-01T20:14:40.416Z,7.20
2023-01-01T20:17:07.343Z,7.17
2023-01-01T20:19:35.742Z,7.70
2023-01-01T20:22:11.482Z,6.90
2023-01-01T20:24:42.548Z,6.93
2023-01-01T20:27:10.300Z,5.90
2023-01-01T20:29:37.621Z,7.53
2023-01-01T20:32:04.713Z,7.10
2023-01-01T20:34:31.775Z,6.77
2023-01-01T20:37:17.200Z,6.77
2023-01-01T20:39:44.363Z,6.70
2023-01-01T20:42:11.256Z,6.30
2023-01-01T20:44:38.319Z,7.67
2023-01-01T20:47:05.221Z,7.53
2023-01-01T20:49:32.076Z,10.40
2023-01-01T20:51:59.046Z,8.93
2023-01-01T20:54:25.936Z,8.67
2023-01-01T20:56:52.891Z,8.07
2023-01-01T20:59:39.188Z,8.30
2023-01-01T21:02:12.438Z,8.70
2023-01-01T21:04:40.629Z,8.70
2023-01-01T21:07:12.335Z,11.63
2023-01-01T21:09:46.501Z,8.47
2023-01-01T21:12:13.681Z,8.60
2023-01-01T21:14:43.554Z,11.57
2023-01-01T21:17:25.390Z,8.80
2023-01-01T21:19:55.703Z,9.13
2023-01-01T21:22:22.721Z,8.70
2023-01-01T21:24:54.094Z,8.47
2023-01-01T21:27:29.426Z,8.80
2023-01-01T21:29:57.770Z,8.80
2023-01-01T21:32:41.655Z,8.43
2023-01-01T21:35:19.899Z,8.43
2023-01-01T21:38:02.624Z,8.20
2023-01-01T21:40:44.811Z,9.57
2023-01-01T21:43:40.444Z,8.93
2023-01-01T21:46:16.625Z,8.73
2023-01-01T21:49:01.377Z,10.20
2023-01-01T21:51:46.511Z,9.80
2023-01-01T21:54:16.956Z,9.47
2023-01-01T21:57:08.857Z,8.80
2023-01-01T21:59:42.136Z,8.17
2023-01-01T22:02:09.563Z,8.80
2023-01-01T22:04:47.073Z,8.30
2023-01-01T22:10:35.794Z,8.73
2023-01-01T22:13:14.268Z,8.50
2023-01-01T22:15:42.129Z,8.60
2023-01-01T22:18:18.120Z,9.30
2023-01-01T22:20:53.499Z,9.17
2023-01-01T22:23:21.107Z,8.07
2023-01-01T22:25:50.962Z,8.13
2023-01-01T22:28:30.482Z,8.83
2023-01-01T22:31:02.514Z,8.17
2023-01-01T22:33:41.973Z,8.57
2023-01-01T22:36:30.612Z,8.37
2023-01-01T22:39:15.963Z,7.73
2023-01-01T22:41:53.593Z,8.17
2023-01-01T22:44:34.912Z,8.80
2023-01-01T22:47:42.466Z,8.63
2023-01-01T22:50:18.724Z,8.20
2023-01-01T22:52:52.900Z,8.70
2023-01-01T22:55:29.690Z,8.30
2023-01-01T22:57:59.477Z,8.37
2023-01-01T23:00:26.337Z,9.57
2023-01-01T23:02:53.251Z,9.47
2023-01-01T23:05:20.669Z,9.10
2023-01-01T23:07:47.601Z,8.63
2023-01-01T23:10:15.431Z,8.63
2023-01-01T23:12:42.454Z,8.30
2023-01-01T23:15:28.647Z,8.67
2023-01-01T23:17:55.606Z,8.93
2023-01-01T23:20:22.607Z,8.63
2023-01-01T23:22:53.067Z,8.90
2023-01-01T23:25:21.066Z,8.37
2023-01-01T23:27:49.145Z,7.67
2023-01-01T23:30:16.321Z,8.67
2023-01-01T23:32:43.465Z,8.57
2023-01-01T23:35:11.330Z,8.87
2023-01-01T23:37:38.874Z,7.93
2023-01-01T23:40:06.392Z,8.30
2023-01-01T23:42:33.271Z,6.90
2023-01-01T23:45:00.091Z,7.70
2023-01-01T23:47:27.053Z,8.20
2023-01-01T23:49:53.965Z,7.20
2023-01-01T23:52:20.979Z,8.13
2023-01-01T23:54:47.817Z,7.53
2023-01-01T23:57:14.696Z,8.80
2023-01-01T23:59:42.108Z,8.10
